Flight Track Log - Related Links

Times and Time Zones

All times are in EDT time to prevent confusion due to time zone crossing. See the XOJ552 flight status page for this flight to view local times or setup timezone preferences in your user account.

Time Position Orientation Groundspeed Altitude Reporting Facility
EDT Latitude Longitude Course Direction KTS MPH feet Rate Location/Type
Thu 06:23:46 PM 35.8628 -78.8008 196° South 158 182 1,400  Level Washington Center
Thu 06:24:28 PM 35.8228 -78.8147 196° South 202 232 4,200 3,873 Climbing Washington Center
Thu 06:25:05 PM 35.7847 -78.8336 202° Southwest 272 313 6,500 2,710 Climbing Washington Center
Thu 06:25:30 PM 35.7511 -78.8425 192° South 296 341 7,000 984 Climbing Washington Center
Thu 06:26:06 PM 35.7067 -78.8611 199° South 284 327 7,500 2,625 Climbing Washington Center
Thu 06:27:06 PM 35.6328 -78.8197 156° South 270 311 11,200 2,723 Climbing Washington Center
Thu 06:28:05 PM 35.5594 -78.7503 142° Southeast 311 358 12,900 3,150 Climbing Washington Center
Thu 06:29:06 PM 35.4503 -78.6975 159° South 371 427 17,500 4,033 Climbing Washington Center
Thu 06:30:07 PM 35.3567 -78.6839 173° South 382 440 21,100 2,231 Climbing Washington Center
Thu 06:31:07 PM 35.2278 -78.6686 174° South 409 471 22,000 458 Climbing Washington Center
Thu 06:32:05 PM 35.1031 -78.6511 173° South 430 495 22,000  Level Washington Center
Thu 06:33:06 PM 34.9803 -78.6314 173° South 443 510 22,000  Level Washington Center
Thu 06:34:07 PM 34.8664 -78.6753 198° South 431 496 22,000  Level Washington Center
Thu 06:35:07 PM 34.7628 -78.7369 206° Southwest 415 478 22,000  Level Washington Center
Thu 06:36:05 PM 34.6547 -78.7986 205° Southwest 420 483 22,000  Level Washington Center
Thu 06:37:15 PM 34.5317 -78.8678 205° Southwest 434 499 22,000  Level Jacksonville Center
Thu 06:38:15 PM 34.4294 -78.9328 208° Southwest 429 494 22,000  Level Jacksonville Center
Thu 06:39:15 PM 34.3331 -78.9875 205° Southwest 419 482 22,000  Level Jacksonville Center
Thu 06:40:15 PM 34.2283 -79.0400 203° Southwest 419 482 22,000  Level Jacksonville Center
Thu 06:41:15 PM 34.1192 -79.0900 201° Southwest 414 476 22,000  Level Jacksonville Center
Thu 06:42:15 PM 34.0100 -79.1397 201° Southwest 414 476 22,000  Level Jacksonville Center
Thu 06:43:15 PM 33.9031 -79.1869 200° South 414 476 22,000 -450 Level Jacksonville Center
Thu 06:44:15 PM 33.7939 -79.2364 201° Southwest 414 476 21,100 -1,450 Descending Jacksonville Center
Thu 06:45:15 PM 33.7081 -79.2975 211° Southwest 395 455 19,100 -2,000 Descending Jacksonville Center
Thu 06:46:15 PM 33.6200 -79.3633 212° Southwest 375 432 17,100 -2,050 Descending Jacksonville Center
Thu 06:47:15 PM 33.5322 -79.4292 212° Southwest 375 432 15,000 -2,000 Descending Jacksonville Center
Thu 06:48:15 PM 33.4464 -79.4947 213° Southwest 375 432 13,100 -1,900 Descending Jacksonville Center
Thu 06:49:15 PM 33.3606 -79.5603 213° Southwest 375 432 11,200 -1,100 Descending Jacksonville Center
Thu 06:50:15 PM 33.2764 -79.6231 212° Southwest 375 432 10,900 -400 Descending Jacksonville Center
Thu 06:51:15 PM 33.1986 -79.6806 212° Southwest 363 418 10,400 -950 Descending Jacksonville Center
Thu 06:52:15 PM 33.1289 -79.7253 208° Southwest 322 371 9,000 -750 Descending Jacksonville Center
Thu 06:53:15 PM 33.0589 -79.7697 208° Southwest 300 345 8,900 -1,050 Descending Jacksonville Center
Thu 06:54:15 PM 32.9914 -79.8167 210° Southwest 288 331 6,900 -2,000 Descending Jacksonville Center
Thu 06:55:15 PM 32.9172 -79.8636 208° Southwest 288 331 4,900 -2,000 Descending Jacksonville Center
Thu 06:56:15 PM 32.8536 -79.9078 210° Southwest 283 326 2,900 -1,400 Descending Jacksonville Center
Thu 06:57:15 PM 32.8000 -79.9294 199° South 249 287 2,100 -800 Descending Jacksonville Center
Thu 06:59:00 PM 32.7000 -80.0000 180° South  Level FlightAware Approximate
Thu 07:06:00 PM 32.7010 -80.0033 180° South  Level Estimated

Login

Don't have an account? Register now (free) for customized features, flight alerts, and more!